Latest Coastal Weather Observations for Gunn Point

IDD60701

Issued at 5:21 pm CST Wednesday 24 May 2017 (issued every 10 minutes, with the page automatically refreshed every 10 minutes)

About coastal observations | Map of coastal stations | Coastal observations for NT | Marine services | Other Formats
Station Details ID: 014023 Name: GUNN POINT Lat: -12.25 Lon: 131.04 Height: 25.0 m
Data from the previous 72 hours. | See also: Recent months for locations in Northern Territory
Date/Time
CST
Temp
°C
Wind Pressure Rain since
9am
mm
Weather Cloud Vis
km
Sea
Height
m
Swell
Dir  Spd
kts
Gust
kts
hPa Trend Height
m
Period
s
Dir
24/05:00pm 30.1 NNE 5 7 1009.3 - 0.0 - - - - - - -
24/04:30pm 30.4 NNE 5 9 1009.2 - 0.0 - - - - - - -
24/04:00pm 31.1 NE 6 11 1009.1 - 0.0 - - - - - - -
24/03:30pm 31.3 NE 7 13 1009.3 - 0.0 - - - - - - -
24/03:00pm 32.2 NE 6 11 1009.5 - 0.0 - - - - - - -
24/02:30pm 33.2 ENE 5 9 1009.9 - 0.0 - - - - - - -
24/02:00pm 33.3 ENE 7 13 1010.2 - 0.0 - - - - - - -
24/01:30pm 33.3 E 7 14 1010.7 - 0.0 - - - - - - -
24/01:00pm 33.0 E 9 17 1011.1 - 0.0 - - - - - - -
24/12:30pm 32.8 ESE 8 15 1011.5 - 0.0 - - - - - - -
24/12:00pm 32.8 E 6 12 1012.1 - 0.0 - - - - - - -
24/11:30am 32.2 ESE 7 14 1012.6 - 0.0 - - - - - - -
24/11:00am 31.6 E 6 11 1013.2 - 0.0 - - - - - - -
24/10:30am 30.9 ENE 5 12 1013.4 - 0.0 - - - - - - -
24/10:00am 29.8 ESE 4 8 1013.5 - 0.0 - - - - - - -
24/09:30am 29.0 E 4 7 1013.4 - 0.0 - - - - - - -
24/09:00am 27.6 E 4 7 1013.3 - 0.0 - - - - - - -
24/08:30am 25.9 E 3 5 1013.0 - 0.0 - - - - - - -
24/08:00am 22.8 E 3 4 1012.7 - 0.0 - - - - - - -
24/07:30am 20.2 ESE 1 2 1012.5 - 0.0 - - - - - - -
24/07:00am 19.9 CALM 0 0 1012.1 - 0.0 - - - - - - -
24/06:30am 20.2 CALM 0 0 1011.7 - 0.0 - - - - - - -
24/06:00am 20.7 CALM 0 0 1011.5 - 0.0 - - - - - - -
24/05:30am 21.3 CALM 0 0 1011.3 - 0.0 - - - - - - -
24/05:00am 21.6 CALM 0 0 1011.1 - 0.0 - - - - - - -
24/04:30am 21.9 CALM 0 1 1011.0 - 0.0 - - - - - - -
24/04:00am 22.3 SE 2 2 1011.1 - 0.0 - - - - - - -
24/03:30am 22.4 SE 2 3 1011.1 - 0.0 - - - - - - -
24/03:00am 22.7 SE 2 3 1011.2 - 0.0 - - - - - - -
24/02:30am 23.1 SE 2 3 1011.1 - 0.0 - - - - - - -
24/02:00am 23.2 SE 2 3 1011.2 - 0.0 - - - - - - -
24/01:30am 23.0 SSE 2 3 1011.4 - 0.0 - - - - - - -
24/01:00am 22.9 SSE 2 3 1011.5 - 0.0 - - - - - - -
24/12:30am 22.4 CALM 0 0 1011.7 - 0.0 - - - - - - -
24/12:00am 22.6 CALM 0 0 1011.8 - 0.0 - - - - - - -
 
Date/Time
CST
Temp
°C
Wind Pressure Rain since
9am
mm
Weather Cloud Vis
km
Sea
Height
m
Swell
Dir  Spd
kts
Gust
kts
hPa Trend Height
m
Period
s
Dir
23/11:30pm 23.0 CALM 0 1 1011.8 - 0.0 - - - - - - -
23/11:00pm 23.2 CALM 0 0 1012.0 - 0.0 - - - - - - -
23/10:30pm 23.1 CALM 0 0 1012.2 - 0.0 - - - - - - -
23/10:00pm 23.2 CALM 0 1 1012.2 - 0.0 - - - - - - -
23/09:30pm 23.6 CALM 0 1 1012.3 - 0.0 - - - - - - -
23/09:00pm 23.3 CALM 0 1 1012.1 - 0.0 - - - - - - -
23/08:30pm 23.7 CALM 0 0 1011.8 - 0.0 - - - - - - -
23/08:00pm 24.1 CALM 0 2 1011.6 - 0.0 - - - - - - -
23/07:30pm 25.0 NNE 1 2 1011.3 - 0.0 - - - - - - -
23/07:00pm 25.5 CALM 0 2 1011.0 - 0.0 - - - - - - -
23/06:30pm 27.7 NE 2 4 1010.8 - 0.0 - - - - - - -
23/06:00pm 29.0 NNE 4 6 1010.7 - 0.0 - - - - - - -
23/05:30pm 30.4 NE 5 9 1010.4 - 0.0 - - - - - - -
23/05:00pm 31.5 NE 5 9 1010.2 - 0.0 - - - - - - -
23/04:30pm 31.7 NNE 5 8 1010.0 - 0.0 - - - - - - -
23/04:00pm 32.1 NE 5 10 1009.9 - 0.0 - - - - - - -
23/03:30pm 32.6 NE 7 10 1009.8 - 0.0 - - - - - - -
23/03:00pm 33.2 NE 6 13 1009.9 - 0.0 - - - - - - -
23/02:30pm 33.0 NE 7 13 1010.2 - 0.0 - - - - - - -
23/02:00pm 33.7 NE 5 12 1010.5 - 0.0 - - - - - - -
23/01:30pm 33.5 ENE 6 11 1010.9 - 0.0 - - - - - - -
23/01:00pm 33.5 E 6 12 1011.3 - 0.0 - - - - - - -
23/12:30pm 33.1 E 10 20 1011.6 - 0.0 - - - - - - -
23/12:00pm 32.8 E 7 11 1012.0 - 0.0 - - - - - - -
23/11:30am 32.8 E 5 11 1012.3 - 0.0 - - - - - - -
23/11:00am 32.0 E 7 12 1012.6 - 0.0 - - - - - - -
23/10:30am 31.1 E 6 12 1012.9 - 0.0 - - - - - - -
23/10:00am 30.9 E 4 10 1013.3 - 0.0 - - - - - - -
23/09:30am 30.1 E 3 5 1013.3 - 0.0 - - - - - - -
23/09:00am 29.0 ESE 1 3 1013.2 - 0.0 - - - - - - -
23/08:30am 27.8 ESE 1 3 1013.1 - 0.0 - - - - - - -
23/08:00am 25.2 CALM 0 0 1012.7 - 0.0 - - - - - - -
23/07:30am 22.7 CALM 0 0 1012.4 - 0.0 - - - - - - -
23/07:00am 22.1 CALM 0 0 1012.1 - 0.0 - - - - - - -
23/06:30am 21.9 CALM 0 0 1011.7 - 0.0 - - - - - - -
23/06:00am 22.0 CALM 0 0 1011.4 - 0.0 - - - - - - -
23/05:30am 22.2 CALM 0 0 1011.3 - 0.0 - - - - - - -
23/05:00am 22.1 CALM 0 0 1011.0 - 0.0 - - - - - - -
23/04:30am 22.3 CALM 0 0 1010.9 - 0.0 - - - - - - -
23/04:00am 22.8 CALM 0 0 1010.9 - 0.0 - - - - - - -
23/03:30am 22.9 ESE 1 2 1011.1 - 0.0 - - - - - - -
23/03:00am 23.3 SE 1 2 1011.2 - 0.0 - - - - - - -
23/02:30am 22.7 SE 2 2 1011.2 - 0.0 - - - - - - -
23/01:30am 22.5 CALM 0 0 1011.6 - 0.0 - - - - - - -
23/01:00am 22.7 CALM 0 0 1011.8 - 0.0 - - - - - - -
23/12:30am 22.6 CALM 0 0 1012.0 - 0.0 - - - - - - -
23/12:00am 22.9 CALM 0 0 1012.3 - 0.0 - - - - - - -
 
Date/Time
CST
Temp
°C
Wind Pressure Rain since
9am
mm
Weather Cloud Vis
km
Sea
Height
m
Swell
Dir  Spd
kts
Gust
kts
hPa Trend Height
m
Period
s
Dir
22/11:30pm 23.1 CALM 0 0 1012.2 - 0.0 - - - - - - -
22/11:00pm 23.3 CALM 0 0 1012.4 - 0.0 - - - - - - -
22/10:30pm 23.3 CALM 0 0 1012.7 - 0.0 - - - - - - -
22/10:00pm 23.6 CALM 0 0 1012.6 - 0.0 - - - - - - -
22/09:30pm 23.9 CALM 0 0 1012.4 - 0.0 - - - - - - -
22/09:00pm 24.5 CALM 0 0 1012.2 - 0.0 - - - - - - -
22/08:30pm 24.8 CALM 0 0 1012.0 - 0.0 - - - - - - -
22/08:00pm 25.6 CALM 0 0 1011.7 - 0.0 - - - - - - -
22/07:30pm 26.1 SSE 2 2 1011.3 - 0.0 - - - - - - -
22/07:00pm 26.9 CALM 0 1 1011.0 - 0.0 - - - - - - -
22/06:30pm 27.7 NE 3 5 1010.8 - 0.0 - - - - - - -
22/06:00pm 28.5 NE 3 7 1010.6 - 0.0 - - - - - - -
22/05:30pm 29.8 NNE 4 7 1010.2 - 0.0 - - - - - - -
22/05:00pm 30.3 NNE 4 9 1010.0 - 0.0 - - - - - - -
22/04:30pm 31.0 NNE 5 8 1009.7 - 0.0 - - - - - - -
22/04:00pm 31.8 NNE 5 9 1009.6 - 0.0 - - - - - - -
22/03:30pm 32.0 NNE 6 10 1009.5 - 0.0 - - - - - - -
22/03:00pm 32.6 NE 6 10 1009.6 - 0.0 - - - - - - -
22/02:30pm 32.6 NNE 6 10 1009.8 - 0.0 - - - - - - -
22/02:00pm 33.1 NE 5 9 1010.2 - 0.0 - - - - - - -
22/01:30pm 32.7 NE 5 9 1010.7 - 0.0 - - - - - - -
22/01:00pm 32.7 NE 5 10 1011.0 - 0.0 - - - - - - -
22/12:30pm 32.7 E 5 11 1011.5 - 0.0 - - - - - - -
22/12:00pm 32.4 ENE 7 10 1012.1 - 0.0 - - - - - - -
22/11:30am 32.2 ENE 6 11 1012.5 - 0.0 - - - - - - -
22/11:00am 31.6 ENE 6 11 1012.9 - 0.0 - - - - - - -
22/10:30am 31.2 E 6 10 1013.2 - 0.0 - - - - - - -
22/10:00am 30.4 ESE 4 7 1013.1 - 0.0 - - - - - - -
22/09:30am 29.8 ESE 3 7 1013.1 - 0.0 - - - - - - -
22/09:00am 28.5 ESE 2 5 1013.0 - 0.0 - - - - - - -
22/08:30am 27.2 ESE 1 3 1012.8 - 0.0 - - - - - - -
22/08:00am 25.1 CALM 0 2 1012.3 - 0.0 - - - - - - -
22/07:30am 22.8 CALM 0 0 1011.9 - 0.0 - - - - - - -
22/07:00am 21.4 SE 1 2 1011.6 - 0.0 - - - - - - -
22/06:30am 20.9 SE 2 3 1011.6 - 0.0 - - - - - - -
22/06:00am 20.8 SE 2 2 1011.4 - 0.0 - - - - - - -
22/05:30am 21.2 ESE 2 3 1011.4 - 0.0 - - - - - - -
22/05:00am 21.4 CALM 0 0 1011.3 - 0.0 - - - - - - -
22/04:30am 20.6 CALM 0 0 1011.2 - 0.0 - - - - - - -
22/04:00am 20.5 CALM 0 1 1011.0 - 0.0 - - - - - - -
22/03:30am 20.4 ESE 1 1 1011.0 - 0.0 - - - - - - -
22/03:00am 20.4 ESE 2 2 1011.0 - 0.0 - - - - - - -
22/02:30am 20.1 SE 2 3 1010.9 - 0.0 - - - - - - -
22/02:00am 20.8 CALM 0 0 1010.6 - 0.0 - - - - - - -
22/01:30am 19.8 CALM 0 0 1010.6 - 0.0 - - - - - - -
22/01:00am 19.8 SSE 2 2 1010.4 - 0.0 - - - - - - -
22/12:30am 19.9 CALM 0 0 1010.5 - 0.0 - - - - - - -
22/12:00am 19.8 CALM 0 0 1010.4 - 0.0 - - - - - - -
 
Date/Time
CST
Temp
°C
Wind Pressure Rain since
9am
mm
Weather Cloud Vis
km
Sea
Height
m
Swell
Dir  Spd
kts
Gust
kts
hPa Trend Height
m
Period
s
Dir
21/11:30pm 20.1 CALM 0 0 1010.5 - 0.0 - - - - - - -
21/11:00pm 20.5 CALM 0 0 1010.5 - 0.0 - - - - - - -
21/10:30pm 20.9 CALM 0 0 1010.5 - 0.0 - - - - - - -
21/10:00pm 21.6 CALM 0 0 1010.5 - 0.0 - - - - - - -
21/09:30pm 21.7 CALM 0 0 1010.4 - 0.0 - - - - - - -
21/09:00pm 22.4 CALM 0 0 1010.2 - 0.0 - - - - - - -
21/08:30pm 23.0 CALM 0 1 1009.9 - 0.0 - - - - - - -
21/08:00pm 23.6 CALM 0 3 1009.4 - 0.0 - - - - - - -
21/07:30pm 24.1 CALM 0 0 1009.1 - 0.0 - - - - - - -
21/07:00pm 25.4 ENE 1 2 1008.8 - 0.0 - - - - - - -
21/06:30pm 26.8 NE 3 5 1008.5 - 0.0 - - - - - - -
21/06:00pm 27.7 NE 3 6 1008.4 - 0.0 - - - - - - -
21/05:30pm 28.8 NE 6 11 1008.3 - 0.0 - - - - - - -

Other Formats:

Comma delimited format used in spreadsheet applications
http://www.bom.gov.au/fwo/IDD60701/IDD60701.99501.axf

JavaScript Object Notation format (JSON) in row-major order
http://www.bom.gov.au/fwo/IDD60701/IDD60701.99501.json